createdAt,value
2022-10-30T00:01:04.225Z,79.20
2022-10-30T00:03:31.655Z,79.25
2022-10-30T00:05:59.008Z,75.47
2022-10-30T00:08:26.045Z,81.50
2022-10-30T00:10:53.708Z,82.15
2022-10-30T00:13:21.474Z,85.47
2022-10-30T00:15:53.164Z,100.55
2022-10-30T00:18:21.160Z,99.63
2022-10-30T00:20:49.207Z,103.63
2022-10-30T00:23:16.544Z,96.45
2022-10-30T00:25:43.491Z,191.95
2022-10-30T00:28:10.654Z,203.93
2022-10-30T00:30:38.348Z,82.40
2022-10-30T00:33:05.906Z,85.38
2022-10-30T00:35:32.975Z,81.70
2022-10-30T00:38:01.624Z,74.57
2022-10-30T00:40:29.266Z,72.03
2022-10-30T00:42:56.537Z,73.18
2022-10-30T00:45:23.678Z,71.22
2022-10-30T00:47:57.993Z,75.18
2022-10-30T00:50:30.014Z,83.55
2022-10-30T00:53:11.858Z,112.65
2022-10-30T00:55:46.201Z,124.32
2022-10-30T00:58:17.680Z,62.88
2022-10-30T01:00:48.962Z,71.50
2022-10-30T01:03:16.426Z,101.18
2022-10-30T01:05:48.034Z,72.78
2022-10-30T01:08:15.076Z,67.53
2022-10-30T01:10:42.166Z,69.03
2022-10-30T01:13:09.784Z,76.88
2022-10-30T01:15:41.693Z,70.72
2022-10-30T01:18:35.184Z,67.30
2022-10-30T01:24:00.647Z,63.90
2022-10-30T01:27:00.436Z,65.22
2022-10-30T01:29:32.916Z,56.85
2022-10-30T01:32:07.747Z,110.57
2022-10-30T01:34:47.293Z,57.38
2022-10-30T01:37:26.380Z,55.90
2022-10-30T01:39:53.850Z,57.42
2022-10-30T01:43:09.105Z,58.70
2022-10-30T01:45:50.837Z,59.20
2022-10-30T01:48:55.269Z,61.20
2022-10-30T01:51:35.807Z,60.05
2022-10-30T01:54:27.180Z,64.82
2022-10-30T01:57:29.468Z,98.82
2022-10-30T02:00:04.797Z,64.55
2022-10-30T02:02:33.054Z,64.25
2022-10-30T02:05:01.239Z,65.55
2022-10-30T02:07:28.277Z,56.25
2022-10-30T02:09:56.006Z,75.80
2022-10-30T02:12:24.211Z,103.82
2022-10-30T02:14:55.205Z,73.35
2022-10-30T02:17:22.415Z,57.63
2022-10-30T02:19:49.372Z,56.13
2022-10-30T02:22:18.204Z,60.92
2022-10-30T02:24:46.128Z,59.03
2022-10-30T02:27:13.224Z,57.25
2022-10-30T02:29:40.369Z,55.88
2022-10-30T02:32:07.328Z,57.17
2022-10-30T02:34:34.324Z,57.03
2022-10-30T02:37:01.321Z,56.05
2022-10-30T02:39:28.327Z,51.45
2022-10-30T02:41:55.344Z,54.22
2022-10-30T02:44:22.369Z,53.60
2022-10-30T02:46:49.402Z,58.17
2022-10-30T02:49:16.419Z,92.90
2022-10-30T02:51:43.418Z,58.40
2022-10-30T02:54:10.413Z,56.13
2022-10-30T02:56:37.378Z,56.08
2022-10-30T02:59:04.401Z,56.13
2022-10-30T03:01:31.566Z,54.35
2022-10-30T03:03:58.664Z,54.63
2022-10-30T03:06:25.686Z,56.25
2022-10-30T03:08:52.778Z,53.30
2022-10-30T03:11:21.147Z,59.97
2022-10-30T03:13:49.275Z,50.08
2022-10-30T03:16:25.045Z,54.70
2022-10-30T03:18:52.705Z,57.33
2022-10-30T03:21:22.197Z,55.83
2022-10-30T03:23:50.791Z,51.85
2022-10-30T03:26:18.472Z,54.92
2022-10-30T03:28:46.059Z,53.08
2022-10-30T03:31:18.352Z,48.90
2022-10-30T03:33:45.908Z,48.13
2022-10-30T03:36:14.418Z,47.30
2022-10-30T03:38:42.050Z,47.88
2022-10-30T03:41:09.168Z,49.67
2022-10-30T03:43:36.319Z,49.92
2022-10-30T03:46:03.480Z,48.90
2022-10-30T03:48:30.817Z,53.03
2022-10-30T03:50:59.747Z,49.70
2022-10-30T03:53:28.709Z,50.08
2022-10-30T03:56:01.076Z,52.05
2022-10-30T03:58:29.422Z,51.72
2022-10-30T04:01:02.154Z,51.60
2022-10-30T04:03:29.401Z,46.97
2022-10-30T04:05:56.711Z,49.25
2022-10-30T04:08:23.812Z,43.38
2022-10-30T04:10:50.931Z,44.17
2022-10-30T04:13:20.383Z,43.15
2022-10-30T04:15:56.445Z,42.65
2022-10-30T04:18:25.452Z,43.78
2022-10-30T04:20:52.745Z,45.08
2022-10-30T04:23:21.191Z,43.90
2022-10-30T04:25:48.848Z,42.10
2022-10-30T04:28:16.027Z,40.72
2022-10-30T04:30:43.057Z,41.17
2022-10-30T04:33:13.758Z,42.03
2022-10-30T04:35:41.804Z,41.72
2022-10-30T04:38:11.050Z,41.70
2022-10-30T04:40:40.903Z,38.10
2022-10-30T04:43:09.091Z,37.97
2022-10-30T04:45:37.189Z,41.13
2022-10-30T04:48:05.663Z,40.72
2022-10-30T04:50:34.729Z,43.55
2022-10-30T04:53:04.624Z,42.03
2022-10-30T04:55:32.459Z,41.05
2022-10-30T04:58:03.082Z,35.47
2022-10-30T05:00:31.737Z,36.75
2022-10-30T05:03:00.989Z,32.45
2022-10-30T05:05:29.625Z,33.97
2022-10-30T05:07:57.408Z,35.78
2022-10-30T05:10:24.795Z,34.38
2022-10-30T05:12:54.141Z,30.02
2022-10-30T05:15:21.486Z,29.60
2022-10-30T05:17:52.873Z,31.15
2022-10-30T05:20:19.952Z,31.95
2022-10-30T05:22:47.278Z,31.58
2022-10-30T05:25:16.064Z,31.02
2022-10-30T05:27:43.088Z,33.17
2022-10-30T05:30:10.422Z,31.27
2022-10-30T05:32:37.395Z,30.73
2022-10-30T05:35:04.754Z,30.42
2022-10-30T05:37:32.134Z,28.25
2022-10-30T05:39:59.154Z,31.02
2022-10-30T05:42:26.164Z,31.30
2022-10-30T05:45:00.896Z,28.60
2022-10-30T05:47:29.037Z,35.17
2022-10-30T05:49:56.113Z,29.38
2022-10-30T05:52:24.302Z,28.05
2022-10-30T05:54:51.274Z,29.08
2022-10-30T05:57:18.314Z,29.08
2022-10-30T05:59:45.294Z,29.35
2022-10-30T06:02:12.367Z,25.52
2022-10-30T06:04:39.411Z,29.13
2022-10-30T06:07:06.445Z,26.00
2022-10-30T06:09:33.423Z,25.88
2022-10-30T06:12:00.425Z,25.80
2022-10-30T06:14:27.394Z,28.67
2022-10-30T06:16:54.359Z,25.13
2022-10-30T06:19:21.386Z,34.45
2022-10-30T06:21:48.414Z,60.22
2022-10-30T06:24:15.435Z,33.50
2022-10-30T06:26:42.444Z,30.33
2022-10-30T06:29:09.481Z,30.77
2022-10-30T06:31:36.441Z,23.50
2022-10-30T06:34:03.841Z,28.35
2022-10-30T06:36:30.839Z,27.33
2022-10-30T06:38:57.919Z,29.08
2022-10-30T06:41:27.526Z,30.65
2022-10-30T06:43:57.449Z,27.03
2022-10-30T06:46:27.378Z,25.60
2022-10-30T06:48:57.918Z,28.23
2022-10-30T06:51:25.318Z,25.30
2022-10-30T06:53:52.401Z,29.25
2022-10-30T06:56:19.441Z,26.90
2022-10-30T06:58:46.449Z,20.02
2022-10-30T07:01:13.894Z,27.55
2022-10-30T07:03:41.020Z,24.75
2022-10-30T07:06:08.386Z,27.27
2022-10-30T07:08:35.407Z,37.80
2022-10-30T07:11:02.408Z,40.38
2022-10-30T07:13:29.369Z,36.92
2022-10-30T07:15:56.336Z,33.40
2022-10-30T07:18:23.453Z,37.17
2022-10-30T07:20:56.241Z,31.02
2022-10-30T07:23:23.548Z,29.33
2022-10-30T07:25:50.722Z,33.22
2022-10-30T07:28:18.004Z,27.25
2022-10-30T07:30:45.023Z,26.10
2022-10-30T07:33:12.074Z,24.05
2022-10-30T07:35:39.154Z,27.65
2022-10-30T07:38:08.469Z,27.73
2022-10-30T07:40:35.524Z,28.02
2022-10-30T07:43:03.921Z,27.45
2022-10-30T07:45:31.780Z,29.65
2022-10-30T07:47:58.958Z,31.55
2022-10-30T07:50:27.777Z,25.92
2022-10-30T07:52:54.865Z,22.90
2022-10-30T07:55:21.862Z,25.92
2022-10-30T07:57:49.124Z,20.02
2022-10-30T08:00:16.893Z,26.67
2022-10-30T08:02:44.342Z,22.17
2022-10-30T08:05:11.478Z,24.40
2022-10-30T08:07:40.061Z,18.80
2022-10-30T08:10:07.996Z,22.13
2022-10-30T08:12:35.494Z,23.77
2022-10-30T08:15:02.624Z,20.75
2022-10-30T08:17:29.619Z,25.15
2022-10-30T08:19:57.359Z,24.92
2022-10-30T08:22:25.135Z,25.02
2022-10-30T08:24:52.178Z,23.50
2022-10-30T08:27:19.201Z,24.58
2022-10-30T08:29:47.418Z,21.23
2022-10-30T08:32:14.418Z,21.67
2022-10-30T08:34:41.503Z,21.90
2022-10-30T08:37:08.527Z,22.38
2022-10-30T08:39:35.552Z,26.70
2022-10-30T08:42:02.512Z,33.92
2022-10-30T08:44:29.457Z,25.35
2022-10-30T08:46:56.886Z,26.38
2022-10-30T08:49:23.954Z,24.02
2022-10-30T08:51:51.007Z,23.10
2022-10-30T08:54:18.016Z,24.45
2022-10-30T08:56:45.013Z,25.63
2022-10-30T08:59:15.845Z,33.92
2022-10-30T09:01:47.892Z,29.17
2022-10-30T09:04:14.989Z,22.85
2022-10-30T09:06:42.022Z,22.98
2022-10-30T09:09:09.114Z,29.85
2022-10-30T09:11:36.752Z,23.38
2022-10-30T09:14:04.227Z,24.25
2022-10-30T09:16:31.337Z,21.08
2022-10-30T09:18:58.337Z,24.98
2022-10-30T09:21:25.392Z,17.25
2022-10-30T09:23:52.369Z,14.88
2022-10-30T09:26:20.920Z,19.92
2022-10-30T09:28:48.101Z,17.90
2022-10-30T09:31:15.106Z,18.13
2022-10-30T09:33:42.073Z,14.88
2022-10-30T09:36:09.442Z,12.02
2022-10-30T09:38:36.664Z,14.82
2022-10-30T09:41:24.941Z,15.35
2022-10-30T09:44:29.737Z,16.35
2022-10-30T09:47:12.969Z,18.13
2022-10-30T09:49:53.832Z,16.17
2022-10-30T09:52:26.695Z,19.23
2022-10-30T09:54:59.386Z,18.58
2022-10-30T09:57:43.206Z,16.92
2022-10-30T10:00:16.879Z,16.35
2022-10-30T10:03:24.524Z,20.55
2022-10-30T10:05:59.365Z,27.55
2022-10-30T10:08:37.215Z,25.88
2022-10-30T10:11:13.189Z,30.65
2022-10-30T10:13:44.190Z,23.23
2022-10-30T10:16:22.740Z,26.23
2022-10-30T10:19:04.796Z,27.52
2022-10-30T10:21:40.070Z,29.05
2022-10-30T10:24:20.022Z,26.88
2022-10-30T10:26:57.077Z,19.70
2022-10-30T10:29:26.916Z,21.98
2022-10-30T10:31:53.827Z,20.77
2022-10-30T10:34:23.826Z,15.35
2022-10-30T10:37:02.721Z,24.25
2022-10-30T10:39:55.947Z,28.02
2022-10-30T10:42:43.068Z,25.40
2022-10-30T10:45:59.597Z,28.75
2022-10-30T10:48:48.857Z,16.25
2022-10-30T10:51:23.486Z,16.63
2022-10-30T10:54:00.801Z,18.17
2022-10-30T10:56:39.346Z,16.83
2022-10-30T10:59:26.801Z,12.77
2022-10-30T11:01:59.324Z,13.07
2022-10-30T11:04:35.067Z,13.77
2022-10-30T11:07:25.749Z,10.52
2022-10-30T11:09:57.031Z,11.95
2022-10-30T11:12:36.695Z,9.35
2022-10-30T11:15:18.886Z,9.52
2022-10-30T11:18:10.007Z,9.10
2022-10-30T11:20:48.989Z,12.32
2022-10-30T11:23:39.147Z,11.70
2022-10-30T11:26:18.418Z,10.35
2022-10-30T11:28:55.136Z,10.05
2022-10-30T11:31:25.265Z,9.75
2022-10-30T11:33:52.309Z,8.63
2022-10-30T11:36:25.689Z,8.75
2022-10-30T11:38:56.559Z,10.65
2022-10-30T11:41:23.783Z,15.77
2022-10-30T11:43:50.864Z,15.40
2022-10-30T11:46:23.568Z,17.15
2022-10-30T11:48:55.273Z,15.50
2022-10-30T11:51:38.454Z,18.35
2022-10-30T11:54:07.300Z,16.98
2022-10-30T11:56:35.763Z,14.85
2022-10-30T11:59:05.383Z,13.85
2022-10-30T12:01:36.350Z,15.48
2022-10-30T12:04:26.143Z,13.15
2022-10-30T12:07:22.788Z,18.50
2022-10-30T12:09:49.962Z,20.35
2022-10-30T12:12:39.869Z,15.80
2022-10-30T12:15:15.921Z,13.85
2022-10-30T12:17:55.342Z,14.07
2022-10-30T12:20:22.564Z,16.08
2022-10-30T12:22:49.804Z,15.02
2022-10-30T12:25:30.352Z,16.45
2022-10-30T12:28:20.425Z,20.40
2022-10-30T12:30:57.665Z,19.10
2022-10-30T12:33:40.179Z,21.98
2022-10-30T12:36:14.161Z,17.98
2022-10-30T12:38:57.447Z,16.63
2022-10-30T12:41:30.245Z,15.57
2022-10-30T12:44:10.636Z,22.70
2022-10-30T12:46:55.961Z,15.95
2022-10-30T12:49:29.934Z,16.08
2022-10-30T12:52:04.936Z,17.35
2022-10-30T12:55:04.095Z,15.27
2022-10-30T12:57:37.905Z,15.50
2022-10-30T13:00:16.043Z,18.25
2022-10-30T13:03:04.732Z,14.15
2022-10-30T13:05:51.685Z,16.00
2022-10-30T13:08:32.924Z,16.48
2022-10-30T13:11:05.962Z,10.75
2022-10-30T13:13:42.524Z,12.70
2022-10-30T13:16:36.232Z,12.35
2022-10-30T13:19:04.002Z,12.27
2022-10-30T13:21:38.840Z,14.10
2022-10-30T13:24:33.611Z,14.35
2022-10-30T13:27:11.315Z,12.93
2022-10-30T13:29:43.199Z,14.02
2022-10-30T13:32:37.875Z,25.73
2022-10-30T13:35:35.335Z,19.42
2022-10-30T13:38:23.816Z,13.05
2022-10-30T13:40:59.261Z,14.38
2022-10-30T13:43:32.453Z,16.38
2022-10-30T13:46:23.306Z,13.18
2022-10-30T13:49:02.154Z,17.42
2022-10-30T13:51:35.346Z,17.55
2022-10-30T13:54:25.161Z,19.60
2022-10-30T13:56:54.402Z,21.35
2022-10-30T13:59:35.539Z,16.08
2022-10-30T14:02:18.274Z,20.75
2022-10-30T14:04:59.539Z,22.13
2022-10-30T14:08:06.009Z,21.48
2022-10-30T14:10:54.676Z,19.75
2022-10-30T14:13:28.741Z,23.60
2022-10-30T14:16:28.061Z,21.88
2022-10-30T14:19:06.218Z,19.77
2022-10-30T14:22:00.089Z,21.33
2022-10-30T14:24:35.204Z,21.75
2022-10-30T14:27:04.953Z,24.05
2022-10-30T14:29:34.953Z,23.48
2022-10-30T14:32:13.821Z,21.95
2022-10-30T14:34:44.796Z,24.60
2022-10-30T14:37:13.053Z,29.58
2022-10-30T14:39:45.018Z,32.20
2022-10-30T14:42:45.264Z,23.83
2022-10-30T14:45:32.949Z,22.02
2022-10-30T14:48:22.476Z,23.33
2022-10-30T14:50:58.651Z,24.55
2022-10-30T14:53:42.877Z,24.35
2022-10-30T14:56:28.146Z,28.52
2022-10-30T14:59:10.451Z,27.88
2022-10-30T15:01:55.094Z,31.00
2022-10-30T15:04:37.278Z,34.80
2022-10-30T15:07:34.309Z,36.25
2022-10-30T15:10:25.085Z,35.05
2022-10-30T15:13:12.765Z,38.88
2022-10-30T15:15:40.100Z,39.35
2022-10-30T15:18:29.400Z,37.63
2022-10-30T15:21:06.990Z,37.63
2022-10-30T15:23:36.928Z,38.13
2022-10-30T15:26:09.727Z,39.03
2022-10-30T15:28:38.938Z,32.22
2022-10-30T15:31:25.729Z,34.72
2022-10-30T15:33:57.872Z,34.03
2022-10-30T15:36:34.764Z,32.75
2022-10-30T15:39:06.131Z,46.78
2022-10-30T15:42:01.958Z,43.38
2022-10-30T15:44:37.868Z,47.70
2022-10-30T15:47:05.866Z,41.72
2022-10-30T15:49:42.780Z,45.35
2022-10-30T15:52:20.923Z,51.03
2022-10-30T15:54:53.157Z,49.38
2022-10-30T15:58:01.551Z,46.38
2022-10-30T16:00:36.504Z,48.35
2022-10-30T16:03:03.808Z,45.08
2022-10-30T16:05:31.677Z,43.45
2022-10-30T16:08:02.124Z,46.78
2022-10-30T16:10:34.830Z,45.65
2022-10-30T16:15:29.810Z,44.08
2022-10-30T16:18:37.824Z,49.15
2022-10-30T16:21:09.622Z,50.63
2022-10-30T16:24:01.377Z,50.27
2022-10-30T16:26:33.008Z,50.67
2022-10-30T16:29:18.803Z,47.55
2022-10-30T16:31:50.293Z,46.42
2022-10-30T16:34:31.987Z,46.28
2022-10-30T16:37:00.293Z,50.03
2022-10-30T16:39:28.142Z,44.15
2022-10-30T16:41:59.887Z,40.80
2022-10-30T16:44:35.366Z,49.30
2022-10-30T16:47:24.346Z,42.10
2022-10-30T16:49:59.030Z,49.95
2022-10-30T16:52:35.649Z,51.58
2022-10-30T16:55:07.873Z,47.00
2022-10-30T16:57:43.762Z,49.22
2022-10-30T17:00:25.797Z,51.03
2022-10-30T17:02:56.380Z,50.83
2022-10-30T17:05:29.786Z,69.72
2022-10-30T17:08:05.139Z,70.95
2022-10-30T17:10:34.956Z,97.68
2022-10-30T17:13:41.711Z,79.10
2022-10-30T17:16:45.011Z,71.80
2022-10-30T17:19:30.271Z,71.63
2022-10-30T17:22:07.945Z,66.70
2022-10-30T17:24:37.728Z,67.93
2022-10-30T17:27:06.846Z,75.03
2022-10-30T17:29:42.629Z,71.38
2022-10-30T17:32:23.059Z,75.28
2022-10-30T17:35:02.533Z,71.78
2022-10-30T17:37:29.774Z,74.80
2022-10-30T17:39:57.191Z,71.40
2022-10-30T17:42:24.270Z,75.18
2022-10-30T17:44:51.326Z,67.75
2022-10-30T17:47:19.849Z,63.83
2022-10-30T17:49:47.323Z,67.22
2022-10-30T17:52:16.503Z,70.85
2022-10-30T17:54:44.238Z,67.97
2022-10-30T17:57:12.282Z,65.72
2022-10-30T17:59:40.348Z,68.13
2022-10-30T18:02:16.035Z,75.78
2022-10-30T18:04:44.647Z,66.97
2022-10-30T18:07:13.471Z,60.88
2022-10-30T18:09:40.889Z,61.10
2022-10-30T18:12:17.977Z,62.08
2022-10-30T18:14:48.093Z,60.72
2022-10-30T18:17:15.108Z,52.72
2022-10-30T18:19:42.140Z,49.03
2022-10-30T18:22:10.476Z,50.22
2022-10-30T18:24:37.535Z,51.38
2022-10-30T18:27:04.754Z,48.88
2022-10-30T18:29:32.078Z,54.72
2022-10-30T18:31:59.360Z,54.60
2022-10-30T18:34:26.377Z,48.50
2022-10-30T18:36:53.529Z,56.00
2022-10-30T18:39:22.252Z,54.17
2022-10-30T18:41:49.770Z,53.00
2022-10-30T18:44:18.025Z,49.13
2022-10-30T18:46:45.726Z,57.15
2022-10-30T18:49:24.553Z,51.40
2022-10-30T18:51:51.573Z,52.00
2022-10-30T18:54:18.595Z,46.92
2022-10-30T18:56:45.728Z,50.30
2022-10-30T18:59:12.922Z,53.50
2022-10-30T19:01:40.109Z,58.85
2022-10-30T19:04:11.131Z,46.55
2022-10-30T19:06:39.038Z,51.00
2022-10-30T19:09:06.774Z,48.85
2022-10-30T19:11:34.030Z,47.75
2022-10-30T19:14:01.465Z,48.28
2022-10-30T19:16:28.884Z,55.85
2022-10-30T19:18:55.961Z,55.85
2022-10-30T19:21:28.237Z,53.55
2022-10-30T19:23:56.431Z,50.33
2022-10-30T19:26:23.537Z,56.13
2022-10-30T19:28:50.524Z,53.80
2022-10-30T19:31:18.999Z,57.78
2022-10-30T19:33:51.273Z,65.82
2022-10-30T19:36:36.515Z,62.53
2022-10-30T19:39:10.290Z,74.57
2022-10-30T19:41:38.998Z,69.95
2022-10-30T19:44:06.083Z,61.55
2022-10-30T19:46:33.703Z,57.28
2022-10-30T19:49:00.965Z,55.72
2022-10-30T19:51:28.664Z,56.17
2022-10-30T19:53:55.869Z,68.43
2022-10-30T19:56:23.038Z,66.50
2022-10-30T19:58:50.400Z,64.60
2022-10-30T20:01:17.717Z,65.05
2022-10-30T20:03:44.955Z,68.35
2022-10-30T20:06:13.317Z,61.33
2022-10-30T20:08:40.680Z,61.80
2022-10-30T20:11:08.048Z,48.85
2022-10-30T20:13:35.254Z,43.75
2022-10-30T20:16:05.259Z,41.00
2022-10-30T20:18:35.574Z,47.35
2022-10-30T20:21:05.587Z,38.15
2022-10-30T20:23:32.589Z,39.97
2022-10-30T20:26:24.546Z,42.83
2022-10-30T20:28:52.048Z,38.83
2022-10-30T20:31:19.478Z,35.28
2022-10-30T20:33:46.612Z,39.33
2022-10-30T20:36:14.295Z,44.58
2022-10-30T20:38:41.520Z,41.10
2022-10-30T20:41:21.019Z,35.58
2022-10-30T20:43:50.187Z,38.53
2022-10-30T20:46:18.169Z,41.15
2022-10-30T20:48:45.207Z,34.40
2022-10-30T20:51:12.628Z,35.40
2022-10-30T20:53:39.700Z,41.05
2022-10-30T20:56:07.154Z,35.95
2022-10-30T20:58:34.100Z,39.35
2022-10-30T21:01:01.232Z,36.78
2022-10-30T21:03:28.734Z,35.88
2022-10-30T21:06:04.598Z,35.47
2022-10-30T21:08:32.048Z,32.90
2022-10-30T21:11:00.981Z,32.97
2022-10-30T21:13:28.695Z,31.88
2022-10-30T21:16:00.982Z,32.20
2022-10-30T21:18:28.063Z,29.80
2022-10-30T21:20:55.062Z,28.60
2022-10-30T21:23:22.042Z,32.08
2022-10-30T21:25:49.007Z,31.13
2022-10-30T21:28:15.989Z,34.42
2022-10-30T21:30:42.982Z,38.08
2022-10-30T21:33:09.967Z,44.33
2022-10-30T21:35:36.941Z,48.70
2022-10-30T21:38:04.071Z,42.75
2022-10-30T21:40:31.071Z,39.20
2022-10-30T21:43:01.357Z,44.00
2022-10-30T21:45:31.216Z,56.58
2022-10-30T21:47:58.197Z,55.50
2022-10-30T21:50:25.229Z,53.45
2022-10-30T21:52:52.184Z,59.67
2022-10-30T21:55:19.181Z,57.75
2022-10-30T21:57:46.232Z,57.55
2022-10-30T22:00:14.049Z,58.50
2022-10-30T22:02:41.567Z,54.85
2022-10-30T22:05:08.910Z,52.83
2022-10-30T22:07:35.914Z,47.28
2022-10-30T22:10:03.026Z,49.67
2022-10-30T22:12:30.028Z,35.97
2022-10-30T22:14:57.011Z,40.92
2022-10-30T22:17:24.006Z,43.72
2022-10-30T22:19:51.015Z,46.83
2022-10-30T22:22:17.998Z,40.88
2022-10-30T22:24:45.045Z,45.85
2022-10-30T22:27:12.028Z,43.22
2022-10-30T22:29:39.035Z,38.08
2022-10-30T22:32:06.111Z,36.95
2022-10-30T22:34:33.118Z,36.53
2022-10-30T22:37:00.303Z,37.92
2022-10-30T22:39:27.344Z,41.50
2022-10-30T22:41:54.335Z,33.97
2022-10-30T22:44:23.100Z,37.08
2022-10-30T22:46:50.187Z,31.90
2022-10-30T22:49:17.285Z,29.00
2022-10-30T22:51:51.266Z,36.90
2022-10-30T22:54:19.352Z,34.00
2022-10-30T22:56:46.485Z,35.38
2022-10-30T22:59:14.566Z,42.53
2022-10-30T23:01:42.372Z,42.45
2022-10-30T23:04:11.520Z,37.33
2022-10-30T23:06:38.748Z,35.63
2022-10-30T23:09:08.818Z,39.75
2022-10-30T23:11:36.173Z,40.83
2022-10-30T23:14:03.491Z,50.40
2022-10-30T23:16:30.683Z,52.13
2022-10-30T23:18:59.997Z,42.13
2022-10-30T23:21:29.811Z,47.42
2022-10-30T23:23:57.420Z,35.72
2022-10-30T23:26:31.119Z,30.98
2022-10-30T23:28:59.620Z,35.67
2022-10-30T23:31:31.092Z,35.55
2022-10-30T23:34:00.577Z,32.05
2022-10-30T23:36:28.545Z,30.60
2022-10-30T23:38:57.595Z,31.92
2022-10-30T23:41:27.193Z,31.38
2022-10-30T23:43:59.283Z,33.33
2022-10-30T23:46:27.386Z,26.57
2022-10-30T23:48:54.852Z,28.20
2022-10-30T23:51:22.603Z,26.85
2022-10-30T23:53:50.053Z,23.20
2022-10-30T23:56:17.868Z,25.63
2022-10-30T23:58:46.239Z,23.50
